createdAt,value
2023-03-31T00:02:41.746Z,10.50
2023-03-31T00:05:30.168Z,10.70
2023-03-31T00:08:19.463Z,10.60
2023-03-31T00:11:08.768Z,10.60
2023-03-31T00:13:57.179Z,10.70
2023-03-31T00:16:46.625Z,10.60
2023-03-31T00:19:34.717Z,10.60
2023-03-31T00:22:27.590Z,10.70
2023-03-31T00:25:18.102Z,10.80
2023-03-31T00:28:05.971Z,10.70
2023-03-31T00:30:55.776Z,10.70
2023-03-31T00:33:44.461Z,11.30
2023-03-31T00:36:32.297Z,10.80
2023-03-31T00:39:20.585Z,12.70
2023-03-31T00:42:13.088Z,12.90
2023-03-31T00:45:19.354Z,11.00
2023-03-31T00:48:10.648Z,10.70
2023-03-31T00:51:06.145Z,10.60
2023-03-31T00:53:57.672Z,11.00
2023-03-31T00:56:48.353Z,10.60
2023-03-31T00:59:38.584Z,9.80
2023-03-31T01:02:26.869Z,10.50
2023-03-31T01:05:15.402Z,10.50
2023-03-31T01:08:05.959Z,10.50
2023-03-31T01:10:54.725Z,10.40
2023-03-31T01:13:42.411Z,10.30
2023-03-31T01:16:30.404Z,10.30
2023-03-31T01:19:22.795Z,10.40
2023-03-31T01:22:33.943Z,10.20
2023-03-31T01:25:42.884Z,10.20
2023-03-31T01:28:35.574Z,10.20
2023-03-31T01:31:31.439Z,10.20
2023-03-31T01:34:37.157Z,10.20
2023-03-31T01:37:56.650Z,10.10
2023-03-31T01:41:04.523Z,10.10
2023-03-31T01:43:58.890Z,11.50
2023-03-31T01:46:49.753Z,10.10
2023-03-31T01:49:44.497Z,10.00
2023-03-31T01:52:37.008Z,10.00
2023-03-31T01:55:35.948Z,9.90
2023-03-31T01:58:26.254Z,9.80
2023-03-31T02:01:16.333Z,10.00
2023-03-31T02:04:07.572Z,9.90
2023-03-31T02:07:00.678Z,9.90
2023-03-31T02:09:50.520Z,9.90
2023-03-31T02:12:42.387Z,8.70
2023-03-31T02:15:32.902Z,10.30
2023-03-31T02:18:26.418Z,9.80
2023-03-31T02:21:16.742Z,10.20
2023-03-31T02:24:07.227Z,9.70
2023-03-31T02:26:56.669Z,12.20
2023-03-31T02:29:44.710Z,9.70
2023-03-31T02:32:37.324Z,9.80
2023-03-31T02:35:26.960Z,9.00
2023-03-31T02:38:20.154Z,9.60
2023-03-31T02:41:08.915Z,9.50
2023-03-31T02:43:56.944Z,9.50
2023-03-31T02:46:47.997Z,9.40
2023-03-31T02:49:37.893Z,9.50
2023-03-31T02:52:46.863Z,9.30
2023-03-31T02:55:44.073Z,9.30
2023-03-31T02:58:49.863Z,9.20
2023-03-31T03:01:52.055Z,8.20
2023-03-31T03:04:54.215Z,9.10
2023-03-31T03:07:47.205Z,11.20
2023-03-31T03:10:38.436Z,9.40
2023-03-31T03:13:29.935Z,9.70
2023-03-31T03:16:21.899Z,11.00
2023-03-31T03:19:11.100Z,9.70
2023-03-31T03:22:03.522Z,9.20
2023-03-31T03:24:52.489Z,9.10
2023-03-31T03:27:40.794Z,9.10
2023-03-31T03:30:28.870Z,9.40
2023-03-31T03:33:17.645Z,9.20
2023-03-31T03:36:07.261Z,9.40
2023-03-31T03:38:57.782Z,11.20
2023-03-31T03:41:47.079Z,9.80
2023-03-31T03:44:34.975Z,12.30
2023-03-31T03:47:25.096Z,9.30
2023-03-31T03:50:15.978Z,8.40
2023-03-31T03:53:08.029Z,9.40
2023-03-31T03:55:59.557Z,10.20
2023-03-31T03:58:48.157Z,9.30
2023-03-31T04:01:36.456Z,10.10
2023-03-31T04:04:24.731Z,9.50
2023-03-31T04:07:13.214Z,9.50
2023-03-31T04:10:00.795Z,9.50
2023-03-31T04:12:51.550Z,9.60
2023-03-31T04:15:41.281Z,9.90
2023-03-31T04:18:32.228Z,9.50
2023-03-31T04:21:23.965Z,9.70
2023-03-31T04:24:12.826Z,10.00
2023-03-31T04:27:03.170Z,9.60
2023-03-31T04:29:55.043Z,9.50
2023-03-31T04:32:42.713Z,9.50
2023-03-31T04:35:49.583Z,9.40
2023-03-31T04:38:38.284Z,9.40
2023-03-31T04:41:27.653Z,9.40
2023-03-31T04:44:14.991Z,9.40
2023-03-31T04:47:07.018Z,9.40
2023-03-31T04:49:55.238Z,9.60
2023-03-31T04:52:43.478Z,9.40
2023-03-31T04:55:34.399Z,9.50
2023-03-31T04:58:22.758Z,9.40
2023-03-31T05:01:10.357Z,9.50
2023-03-31T05:03:59.339Z,9.40
2023-03-31T05:06:47.580Z,9.50
2023-03-31T05:09:35.150Z,9.50
2023-03-31T05:12:26.312Z,9.50
2023-03-31T05:15:14.420Z,9.50
2023-03-31T05:18:02.249Z,9.70
2023-03-31T05:20:54.486Z,9.60
2023-03-31T05:23:42.939Z,10.10
2023-03-31T05:26:30.306Z,9.70
2023-03-31T05:29:18.707Z,9.70
2023-03-31T05:32:06.803Z,9.70
2023-03-31T05:34:57.343Z,9.70
2023-03-31T05:37:50.004Z,9.70
2023-03-31T05:40:38.125Z,9.70
2023-03-31T05:43:26.285Z,11.50
2023-03-31T05:46:14.654Z,9.80
2023-03-31T05:49:09.167Z,9.80
2023-03-31T05:51:57.241Z,9.80
2023-03-31T05:54:48.965Z,12.00
2023-03-31T05:57:39.162Z,9.80
2023-03-31T06:00:27.468Z,9.90
2023-03-31T06:03:15.447Z,10.20
2023-03-31T06:06:10.486Z,9.80
2023-03-31T06:08:58.361Z,9.80
2023-03-31T06:11:49.367Z,10.70
2023-03-31T06:14:38.423Z,9.90
2023-03-31T06:17:26.210Z,9.80
2023-03-31T06:20:27.285Z,9.90
2023-03-31T06:23:16.426Z,9.80
2023-03-31T06:26:04.868Z,10.60
2023-03-31T06:28:57.432Z,9.90
2023-03-31T06:31:44.983Z,9.90
2023-03-31T06:34:32.618Z,9.90
2023-03-31T06:37:20.161Z,9.90
2023-03-31T06:40:08.423Z,9.30
2023-03-31T06:42:55.577Z,9.70
2023-03-31T06:45:44.745Z,10.10
2023-03-31T06:48:32.293Z,10.10
2023-03-31T06:51:20.590Z,10.20
2023-03-31T06:54:08.710Z,10.20
2023-03-31T06:56:56.438Z,10.40
2023-03-31T06:59:43.950Z,9.60
2023-03-31T07:02:33.228Z,10.30
2023-03-31T07:05:26.814Z,10.60
2023-03-31T07:08:14.863Z,10.70
2023-03-31T07:11:03.328Z,10.80
2023-03-31T07:13:50.992Z,10.90
2023-03-31T07:16:39.260Z,11.00
2023-03-31T07:19:28.584Z,12.50
2023-03-31T07:22:16.783Z,11.20
2023-03-31T07:25:04.726Z,9.90
2023-03-31T07:27:52.993Z,11.20
2023-03-31T07:30:41.440Z,11.20
2023-03-31T07:33:29.551Z,11.10
2023-03-31T07:36:19.906Z,11.60
2023-03-31T07:39:07.961Z,10.60
2023-03-31T07:41:56.234Z,11.40
2023-03-31T07:44:43.916Z,11.40
2023-03-31T07:47:32.374Z,11.30
2023-03-31T07:50:20.407Z,11.40
2023-03-31T07:53:12.313Z,11.50
2023-03-31T07:56:03.417Z,11.50
2023-03-31T07:58:55.257Z,11.60
2023-03-31T08:01:46.957Z,11.60
2023-03-31T08:04:35.042Z,11.60
2023-03-31T08:07:22.872Z,11.30
2023-03-31T08:10:14.781Z,11.20
2023-03-31T08:13:02.754Z,11.20
2023-03-31T08:15:52.385Z,11.20
2023-03-31T08:18:40.015Z,11.20
2023-03-31T08:21:29.532Z,9.50
2023-03-31T08:24:17.119Z,11.40
2023-03-31T08:27:11.869Z,11.50
2023-03-31T08:30:03.294Z,11.60
2023-03-31T08:32:50.997Z,11.60
2023-03-31T08:35:39.518Z,11.80
2023-03-31T08:38:32.578Z,12.10
2023-03-31T08:41:36.360Z,11.50
2023-03-31T08:44:30.796Z,12.30
2023-03-31T08:47:20.301Z,9.20
2023-03-31T08:50:09.180Z,12.50
2023-03-31T08:53:00.748Z,11.40
2023-03-31T08:55:50.555Z,11.40
2023-03-31T08:58:41.547Z,11.50
2023-03-31T09:01:47.859Z,11.50
2023-03-31T09:04:52.972Z,11.50
2023-03-31T09:07:50.273Z,11.60
2023-03-31T09:10:44.121Z,11.50
2023-03-31T09:13:50.758Z,11.90
2023-03-31T09:16:43.782Z,13.70
2023-03-31T09:19:36.756Z,12.80
2023-03-31T09:22:26.691Z,12.00
2023-03-31T09:25:16.578Z,12.00
2023-03-31T09:28:06.222Z,11.90
2023-03-31T09:30:55.888Z,11.80
2023-03-31T09:33:46.425Z,11.80
2023-03-31T09:36:34.770Z,11.80
2023-03-31T09:39:22.308Z,12.40
2023-03-31T09:42:11.987Z,11.80
2023-03-31T09:44:59.626Z,13.10
2023-03-31T09:47:50.707Z,12.20
2023-03-31T09:50:46.840Z,12.50
2023-03-31T09:53:39.875Z,15.10
2023-03-31T09:56:35.336Z,13.80
2023-03-31T09:59:23.690Z,13.40
2023-03-31T10:02:24.830Z,13.30
2023-03-31T10:05:21.619Z,13.50
2023-03-31T10:08:22.244Z,13.70
2023-03-31T10:11:11.449Z,13.10
2023-03-31T10:14:05.480Z,13.70
2023-03-31T10:16:55.499Z,12.90
2023-03-31T10:19:51.230Z,12.80
2023-03-31T10:22:44.669Z,12.50
2023-03-31T10:25:36.737Z,12.50
2023-03-31T10:28:24.788Z,12.70
2023-03-31T10:31:13.063Z,12.80
2023-03-31T10:34:01.107Z,13.00
2023-03-31T10:36:49.365Z,13.20
2023-03-31T10:39:39.324Z,13.00
2023-03-31T10:42:29.385Z,13.10
2023-03-31T10:45:36.415Z,15.50
2023-03-31T10:48:27.519Z,13.20
2023-03-31T10:51:18.116Z,13.50
2023-03-31T10:54:10.832Z,13.70
2023-03-31T10:57:03.703Z,13.60
2023-03-31T11:00:02.051Z,13.50
2023-03-31T11:03:04.839Z,13.40
2023-03-31T11:05:53.904Z,13.30
2023-03-31T11:08:46.776Z,14.20
2023-03-31T11:11:51.543Z,12.90
2023-03-31T11:14:44.732Z,12.60
2023-03-31T11:17:38.457Z,10.30
2023-03-31T11:20:30.873Z,12.40
2023-03-31T11:23:22.802Z,12.20
2023-03-31T11:26:13.377Z,12.10
2023-03-31T11:29:06.227Z,11.90
2023-03-31T11:31:58.135Z,12.00
2023-03-31T11:34:54.437Z,12.30
2023-03-31T11:37:50.127Z,12.30
2023-03-31T11:40:44.996Z,12.60
2023-03-31T11:43:37.492Z,13.80
2023-03-31T11:46:26.911Z,15.10
2023-03-31T11:49:19.928Z,14.80
2023-03-31T11:52:11.447Z,13.10
2023-03-31T11:55:03.106Z,13.90
2023-03-31T11:57:54.468Z,13.60
2023-03-31T12:00:45.293Z,14.00
2023-03-31T12:03:37.145Z,14.80
2023-03-31T12:06:29.466Z,12.80
2023-03-31T12:09:23.418Z,14.40
2023-03-31T12:12:14.153Z,14.50
2023-03-31T12:15:04.728Z,14.60
2023-03-31T12:17:58.200Z,14.80
2023-03-31T12:20:49.640Z,14.00
2023-03-31T12:23:44.296Z,13.50
2023-03-31T12:26:38.991Z,13.00
2023-03-31T12:29:29.694Z,10.60
2023-03-31T12:32:22.045Z,14.60
2023-03-31T12:35:25.628Z,11.80
2023-03-31T12:38:36.182Z,12.70
2023-03-31T12:41:32.865Z,11.50
2023-03-31T12:44:30.208Z,11.30
2023-03-31T12:47:28.705Z,11.80
2023-03-31T12:50:25.896Z,11.80
2023-03-31T12:53:18.051Z,11.40
2023-03-31T12:56:06.727Z,11.50
2023-03-31T12:58:55.201Z,11.60
2023-03-31T13:02:13.552Z,11.80
2023-03-31T13:05:21.654Z,11.90
2023-03-31T13:08:10.623Z,12.00
2023-03-31T13:11:02.014Z,11.80
2023-03-31T13:14:00.636Z,11.90
2023-03-31T13:16:52.833Z,12.00
2023-03-31T13:19:46.793Z,12.00
2023-03-31T13:22:36.269Z,12.10
2023-03-31T13:25:48.998Z,12.30
2023-03-31T13:28:42.554Z,12.40
2023-03-31T13:31:50.343Z,12.30
2023-03-31T13:34:41.425Z,10.70
2023-03-31T13:37:54.845Z,12.40
2023-03-31T13:40:56.191Z,11.70
2023-03-31T13:44:01.671Z,12.10
2023-03-31T13:47:00.452Z,11.60
2023-03-31T13:49:56.760Z,11.70
2023-03-31T13:52:49.399Z,11.70
2023-03-31T13:55:45.576Z,11.60
2023-03-31T13:58:41.847Z,11.70
2023-03-31T14:01:38.651Z,11.70
2023-03-31T14:04:38.678Z,11.70
2023-03-31T14:07:30.379Z,11.90
2023-03-31T14:10:26.038Z,12.60
2023-03-31T14:13:18.454Z,11.30
2023-03-31T14:16:07.209Z,11.20
2023-03-31T14:19:01.437Z,11.20
2023-03-31T14:21:54.227Z,11.00
2023-03-31T14:24:46.412Z,11.00
2023-03-31T14:27:47.491Z,11.00
2023-03-31T14:30:42.580Z,11.00
2023-03-31T14:33:34.465Z,11.20
2023-03-31T14:36:28.725Z,12.60
2023-03-31T14:39:21.375Z,11.60
2023-03-31T14:42:12.614Z,11.60
2023-03-31T14:45:03.809Z,12.70
2023-03-31T14:47:57.423Z,12.60
2023-03-31T14:50:46.138Z,12.00
2023-03-31T14:53:37.353Z,11.90
2023-03-31T14:56:29.825Z,11.90
2023-03-31T14:59:20.288Z,11.80
2023-03-31T15:02:13.155Z,11.80
2023-03-31T15:05:03.128Z,9.70
2023-03-31T15:07:53.129Z,11.60
2023-03-31T15:10:42.181Z,11.40
2023-03-31T15:13:36.064Z,11.20
2023-03-31T15:16:32.133Z,11.20
2023-03-31T15:19:21.557Z,11.50
2023-03-31T15:22:14.418Z,10.80
2023-03-31T15:25:04.864Z,10.90
2023-03-31T15:27:54.672Z,11.30
2023-03-31T15:30:43.516Z,11.10
2023-03-31T15:33:34.292Z,11.30
2023-03-31T15:36:22.861Z,11.30
2023-03-31T15:39:14.696Z,11.20
2023-03-31T15:42:03.306Z,11.10
2023-03-31T15:44:55.817Z,11.10
2023-03-31T15:47:49.975Z,11.20
2023-03-31T15:50:40.899Z,11.30
2023-03-31T15:53:31.479Z,10.60
2023-03-31T15:56:32.462Z,11.30
2023-03-31T15:59:25.154Z,11.30
2023-03-31T16:02:14.813Z,10.90
2023-03-31T16:05:06.160Z,11.30
2023-03-31T16:07:58.990Z,11.20
2023-03-31T16:10:49.477Z,11.20
2023-03-31T16:13:41.595Z,11.80
2023-03-31T16:16:31.894Z,11.40
2023-03-31T16:19:22.013Z,11.40
2023-03-31T16:22:14.698Z,11.40
2023-03-31T16:25:02.623Z,11.50
2023-03-31T16:27:52.233Z,12.00
2023-03-31T16:30:43.020Z,11.60
2023-03-31T16:33:54.889Z,11.40
2023-03-31T16:36:43.450Z,11.50
2023-03-31T16:39:31.431Z,11.30
2023-03-31T16:42:19.483Z,11.10
2023-03-31T16:45:16.729Z,11.10
2023-03-31T16:48:15.653Z,11.10
2023-03-31T16:51:06.120Z,11.20
2023-03-31T16:53:58.876Z,11.00
2023-03-31T16:56:48.182Z,11.00
2023-03-31T16:59:58.371Z,11.10
2023-03-31T17:02:47.833Z,11.00
2023-03-31T17:05:41.484Z,11.10
2023-03-31T17:08:30.082Z,10.90
2023-03-31T17:11:18.011Z,10.60
2023-03-31T17:14:06.048Z,10.40
2023-03-31T17:16:55.920Z,10.10
2023-03-31T17:19:44.072Z,10.20
2023-03-31T17:22:37.916Z,10.00
2023-03-31T17:25:25.916Z,10.00
2023-03-31T17:28:14.441Z,10.00
2023-03-31T17:31:03.594Z,9.90
2023-03-31T17:33:51.241Z,9.80
2023-03-31T17:36:39.228Z,9.90
2023-03-31T17:39:29.388Z,9.60
2023-03-31T17:42:19.374Z,9.60
2023-03-31T17:45:11.746Z,9.60
2023-03-31T17:47:59.955Z,9.60
2023-03-31T17:50:47.974Z,9.40
2023-03-31T17:53:36.448Z,9.50
2023-03-31T17:56:28.271Z,9.50
2023-03-31T17:59:16.408Z,9.50
2023-03-31T18:02:03.952Z,9.60
2023-03-31T18:04:51.982Z,9.40
2023-03-31T18:07:39.901Z,10.50
2023-03-31T18:10:27.324Z,9.40
2023-03-31T18:13:16.771Z,9.40
2023-03-31T18:16:05.615Z,9.40
2023-03-31T18:18:54.425Z,9.50
2023-03-31T18:21:41.919Z,10.20
2023-03-31T18:24:32.025Z,9.40
2023-03-31T18:27:23.116Z,9.30
2023-03-31T18:30:14.215Z,9.30
2023-03-31T18:33:03.784Z,9.30
2023-03-31T18:35:53.251Z,9.60
2023-03-31T18:38:41.339Z,9.30
2023-03-31T18:41:29.951Z,9.30
2023-03-31T18:44:18.461Z,9.20
2023-03-31T18:47:07.411Z,9.30
2023-03-31T18:49:55.955Z,9.30
2023-03-31T18:52:44.570Z,9.30
2023-03-31T18:55:34.764Z,8.80
2023-03-31T18:58:23.876Z,9.20
2023-03-31T19:01:11.701Z,9.20
2023-03-31T19:04:00.916Z,9.20
2023-03-31T19:06:50.851Z,9.30
2023-03-31T19:09:39.494Z,9.20
2023-03-31T19:12:27.768Z,9.20
2023-03-31T19:15:16.533Z,10.40
2023-03-31T19:18:04.912Z,9.20
2023-03-31T19:20:54.709Z,9.30
2023-03-31T19:23:42.613Z,8.10
2023-03-31T19:26:30.606Z,9.30
2023-03-31T19:29:18.255Z,9.40
2023-03-31T19:32:06.418Z,9.50
2023-03-31T19:34:56.112Z,9.30
2023-03-31T19:37:45.300Z,10.80
2023-03-31T19:40:32.474Z,10.40
2023-03-31T19:43:21.212Z,9.30
2023-03-31T19:46:08.702Z,9.50
2023-03-31T19:48:56.884Z,9.40
2023-03-31T19:51:45.288Z,9.40
2023-03-31T19:54:35.005Z,9.30
2023-03-31T19:57:23.222Z,9.30
2023-03-31T20:00:12.537Z,9.30
2023-03-31T20:03:00.882Z,9.30
2023-03-31T20:05:49.336Z,9.30
2023-03-31T20:08:37.233Z,8.80
2023-03-31T20:11:27.701Z,9.30
2023-03-31T20:14:15.914Z,9.40
2023-03-31T20:17:04.962Z,9.30
2023-03-31T20:19:52.950Z,9.50
2023-03-31T20:22:41.775Z,9.30
2023-03-31T20:25:29.837Z,9.30
2023-03-31T20:28:20.002Z,9.30
2023-03-31T20:31:08.647Z,9.30
2023-03-31T20:33:56.868Z,9.30
2023-03-31T20:36:45.087Z,9.30
2023-03-31T20:39:37.892Z,9.30
2023-03-31T20:42:25.631Z,9.30
2023-03-31T20:45:15.107Z,9.30
2023-03-31T20:48:06.389Z,9.30
2023-03-31T20:50:54.351Z,9.30
2023-03-31T20:53:43.642Z,9.30
2023-03-31T20:56:31.926Z,9.30
2023-03-31T20:59:20.466Z,9.30
2023-03-31T21:02:11.189Z,9.30
2023-03-31T21:04:58.716Z,9.20
2023-03-31T21:07:46.305Z,9.30
2023-03-31T21:10:39.988Z,9.50
2023-03-31T21:13:27.994Z,9.50
2023-03-31T21:16:16.433Z,9.40
2023-03-31T21:19:05.295Z,9.20
2023-03-31T21:21:52.838Z,9.20
2023-03-31T21:24:41.017Z,9.20
2023-03-31T21:27:28.515Z,9.30
2023-03-31T21:30:18.732Z,11.90
2023-03-31T21:33:06.656Z,9.50
2023-03-31T21:35:59.257Z,9.40
2023-03-31T21:38:47.422Z,9.30
2023-03-31T21:41:35.555Z,9.20
2023-03-31T21:44:25.109Z,9.20
2023-03-31T21:47:12.870Z,9.20
2023-03-31T21:50:00.451Z,9.20
2023-03-31T21:52:49.887Z,9.20
2023-03-31T21:55:38.509Z,9.20
2023-03-31T21:58:28.842Z,9.20
2023-03-31T22:01:16.828Z,10.80
2023-03-31T22:04:05.023Z,9.70
2023-03-31T22:06:52.793Z,9.10
2023-03-31T22:09:42.496Z,9.40
2023-03-31T22:12:31.313Z,10.20
2023-03-31T22:15:19.439Z,9.20
2023-03-31T22:18:07.857Z,11.40
2023-03-31T22:20:55.202Z,9.20
2023-03-31T22:23:42.869Z,9.20
2023-03-31T22:26:32.431Z,9.20
2023-03-31T22:29:19.832Z,9.20
2023-03-31T22:32:08.508Z,9.10
2023-03-31T22:34:56.426Z,9.20
2023-03-31T22:37:44.175Z,9.20
2023-03-31T22:40:32.341Z,9.30
2023-03-31T22:43:22.642Z,9.20
2023-03-31T22:46:11.210Z,9.20
2023-03-31T22:48:59.992Z,10.80
2023-03-31T22:51:47.739Z,9.20
2023-03-31T22:54:35.774Z,9.10
2023-03-31T22:57:22.990Z,9.10
2023-03-31T23:00:13.969Z,10.30
2023-03-31T23:03:01.788Z,9.00
2023-03-31T23:05:50.202Z,9.20
2023-03-31T23:08:37.974Z,9.10
2023-03-31T23:11:26.249Z,9.30
2023-03-31T23:14:14.398Z,9.30
2023-03-31T23:17:03.516Z,9.10
2023-03-31T23:19:51.789Z,10.50
2023-03-31T23:22:40.201Z,9.00
2023-03-31T23:25:27.484Z,9.20
2023-03-31T23:28:15.397Z,9.10
2023-03-31T23:31:03.446Z,9.00
2023-03-31T23:33:52.519Z,9.10
2023-03-31T23:36:40.141Z,9.10
2023-03-31T23:39:27.917Z,8.90
2023-03-31T23:42:20.508Z,9.00
2023-03-31T23:45:08.731Z,9.00
2023-03-31T23:47:56.340Z,11.20
2023-03-31T23:50:45.783Z,9.10
2023-03-31T23:53:33.371Z,9.00
2023-03-31T23:56:22.924Z,9.00
2023-03-31T23:59:10.623Z,8.90
